Time;durP1;ratioP1;P1;durP2;ratioP2;P2;SDS_P1;SDS_P2;PMS_P1;PMS_P2;Temp;Humidity;BMP_temperature;BMP_pressure;BME280_temperature;BME280_humidity;BME280_pressure;Samples;Min_cycle;Max_cycle;Signal;HPM_P1;HPM_P2
2022/06/27 00:01:49;190105.00;0.63;328.89;70550.00;0.24;122.71;;;;;23.40;1.00;;;;;;2277138;61;1034;-84
2022/06/27 00:04:18;166075.00;0.55;287.51;70404.00;0.23;122.46;;;;;23.70;1.00;;;;;;2277064;61;1060;-84
2022/06/27 00:06:44;227677.00;0.76;393.55;64184.00;0.21;111.71;;;;;23.50;1.00;;;;;;2277124;61;1114;-84
2022/06/27 00:09:11;184771.00;0.62;319.71;52463.00;0.17;91.45;;;;;23.00;1.00;;;;;;2277085;61;1319;-84
2022/06/27 00:11:38;172723.00;0.58;298.96;68715.00;0.23;119.54;;;;;23.00;1.00;;;;;;2277235;61;1093;-84
2022/06/27 00:14:05;222594.00;0.74;384.81;73318.00;0.24;127.49;;;;;22.90;1.70;;;;;;2277173;61;1935;-86
2022/06/27 00:16:32;163743.00;0.55;283.49;71001.00;0.24;123.49;;;;;23.40;1.10;;;;;;2277064;61;1111;-85
2022/06/27 00:18:59;224127.00;0.75;387.44;67702.00;0.23;117.79;;;;;24.00;1.00;;;;;;2276976;61;1265;-86
2022/06/27 00:21:27;241755.00;0.81;417.77;67662.00;0.23;117.72;;;;;24.40;1.00;;;;;;2276988;61;1042;-86
2022/06/27 00:23:54;209445.00;0.70;362.18;67757.00;0.23;117.88;;;;;24.50;1.00;;;;;;2277024;61;1051;-87
2022/06/27 00:26:21;171122.00;0.57;296.20;61597.00;0.21;107.24;;;;;24.50;1.00;;;;;;2277080;61;1116;-87
2022/06/27 00:28:48;334225.00;1.11;576.75;68105.00;0.23;118.49;;;;;24.50;1.00;;;;;;2276801;61;1552;-88
2022/06/27 00:38:54;2037055.00;6.79;3700.69;94173.00;0.31;163.51;;;;;24.50;1.00;;;;;;1804314;40;3515;-89
2022/06/27 00:41:22;1307777.00;4.36;2286.35;102633.00;0.34;178.12;;;;;24.00;1.70;;;;;;2276755;61;1060;-87
2022/06/27 00:46:18;120926424.00;403.09;71635312.00;115429.00;0.38;200.20;;;;;22.30;9.40;;;;;;2299751;40;3491;-87
2022/06/27 00:48:45;203956.00;0.68;352.73;0.00;0.00;0.62;;;;;21.70;13.70;;;;;;2274707;61;1303;-87
2022/06/27 00:51:12;8867.00;0.03;15.99;0.00;0.00;0.62;;;;;21.70;13.20;;;;;;2272829;61;987;-88
2022/06/27 00:53:40;308537.00;1.03;532.59;104009.00;0.35;180.49;;;;;21.50;14.20;;;;;;2272781;61;1085;-86
2022/06/27 00:56:08;3030.00;0.01;5.87;0.00;0.00;0.62;;;;;21.20;16.10;;;;;;2272743;61;1923;-86
2022/06/27 00:58:36;332711.00;1.11;574.15;39282.00;0.13;68.65;;;;;20.40;22.00;;;;;;2272794;61;1300;-84
2022/06/27 01:01:04;89051.00;0.30;154.67;0.00;0.00;0.62;;;;;19.90;26.30;;;;;;2272759;61;1011;-84
2022/06/27 01:03:31;228930.00;0.76;395.71;0.00;0.00;0.62;;;;;19.60;27.90;;;;;;2272775;61;1063;-85
2022/06/27 01:05:58;932159.00;3.11;1612.67;0.00;0.00;0.62;;;;;19.50;29.30;;;;;;2272775;61;1100;-84
2022/06/27 01:08:26;256811.00;0.86;443.66;0.00;0.00;0.62;;;;;19.40;27.80;;;;;;2272557;61;1372;-84
2022/06/27 01:10:53;312084.00;1.04;538.69;0.00;0.00;0.62;;;;;19.40;29.40;;;;;;2272700;61;947;-85
2022/06/27 01:13:22;32995.00;0.11;57.77;0.00;0.00;0.62;;;;;19.30;30.20;;;;;;2272727;61;1055;-85
2022/06/27 01:15:50;169567.00;0.57;293.52;48716.00;0.16;84.97;;;;;19.50;29.20;;;;;;2272715;61;1920;-83
2022/06/27 01:18:17;0.00;0.00;0.62;0.00;0.00;0.62;;;;;20.00;24.80;;;;;;2272716;61;1422;-85
2022/06/27 01:20:45;81617.00;0.27;141.83;0.00;0.00;0.62;;;;;20.70;19.70;;;;;;2272737;61;1100;-85
2022/06/27 01:23:14;0.00;0.00;0.62;0.00;0.00;0.62;;;;;21.40;16.30;;;;;;2272738;61;1080;-85
2022/06/27 01:25:41;28135.00;0.09;49.35;0.00;0.00;0.62;;;;;21.90;13.20;;;;;;2272837;61;904;-84
2022/06/27 01:28:09;0.00;0.00;0.62;0.00;0.00;0.62;;;;;22.00;11.30;;;;;;2272690;61;1381;-82
2022/06/27 01:30:36;0.00;0.00;0.62;0.00;0.00;0.62;;;;;21.10;13.20;;;;;;2272754;61;1031;-83
2022/06/27 01:33:03;0.00;0.00;0.62;0.00;0.00;0.62;;;;;20.60;15.80;;;;;;2272726;61;1111;-84
2022/06/27 01:35:30;212778.00;0.71;367.92;0.00;0.00;0.62;;;;;20.10;18.80;;;;;;2272705;61;1990;-84
2022/06/27 01:37:56;0.00;0.00;0.62;0.00;0.00;0.62;;;;;19.70;19.90;;;;;;2272610;61;1323;-85
2022/06/27 01:40:25;16112.00;0.05;28.54;0.00;0.00;0.62;;;;;19.50;21.70;;;;;;2272640;61;1026;-84
2022/06/27 01:42:52;262770.00;0.88;453.91;0.00;0.00;0.62;;;;;19.20;22.10;;;;;;2272620;61;1040;-84
2022/06/27 01:45:19;31439.00;0.10;55.07;0.00;0.00;0.62;;;;;19.30;22.80;;;;;;2272650;61;1084;-83
2022/06/27 01:47:46;302225.00;1.01;521.74;118340.00;0.39;205.22;;;;;19.30;21.70;;;;;;2272551;61;1308;-84
2022/06/27 01:50:13;80240.00;0.27;139.45;0.00;0.00;0.62;;;;;19.40;22.10;;;;;;2272577;61;1064;-85
2022/06/27 01:52:42;191726.00;0.64;331.68;3620.00;0.01;6.89;;;;;19.50;20.10;;;;;;2272443;61;1110;-84
2022/06/27 01:55:10;39067.00;0.13;68.27;0.00;0.00;0.62;;;;;19.70;18.60;;;;;;2272489;61;2234;-84
2022/06/27 01:57:39;0.00;0.00;0.62;0.00;0.00;0.62;;;;;19.70;19.40;;;;;;2272476;61;1371;-84
2022/06/27 02:00:08;0.00;0.00;0.62;0.00;0.00;0.62;;;;;20.20;17.50;;;;;;2272533;61;1103;-86
2022/06/27 02:02:35;0.00;0.00;0.62;0.00;0.00;0.62;;;;;20.80;14.40;;;;;;2272404;61;1058;-84
2022/06/27 02:05:02;47830.00;0.16;83.43;0.00;0.00;0.62;;;;;21.20;12.80;;;;;;2272521;61;1030;-85
2022/06/27 02:07:29;4812.00;0.02;8.96;0.00;0.00;0.62;;;;;21.30;10.10;;;;;;2272518;61;1014;-85
2022/06/27 02:09:56;152021.00;0.51;263.29;0.00;0.00;0.62;;;;;21.50;10.00;;;;;;2272495;61;1219;-84
2022/06/27 02:12:23;0.00;0.00;0.62;0.00;0.00;0.62;;;;;21.50;8.40;;;;;;2272463;61;1086;-83
2022/06/27 02:14:53;30559.00;0.10;53.55;0.00;0.00;0.62;;;;;21.50;10.10;;;;;;2272451;61;1990;-83
2022/06/27 02:17:21;201651.00;0.67;348.77;552.00;0.00;1.58;;;;;21.40;9.10;;;;;;2272521;61;1102;-84
2022/06/27 02:19:49;164546.00;0.55;284.87;0.00;0.00;0.62;;;;;21.50;8.90;;;;;;2272260;61;1378;-84
2022/06/27 02:22:17;52835.00;0.18;92.09;0.00;0.00;0.62;;;;;21.80;7.50;;;;;;2272480;61;1087;-83
2022/06/27 02:24:44;0.00;0.00;0.62;0.00;0.00;0.62;;;;;21.80;7.30;;;;;;2272440;61;1092;-84
2022/06/27 02:27:12;0.00;0.00;0.62;0.00;0.00;0.62;;;;;21.80;7.50;;;;;;2272404;61;1082;-84
2022/06/27 02:29:39;70355.00;0.23;122.37;0.00;0.00;0.62;;;;;22.10;7.60;;;;;;2272409;61;1376;-85
2022/06/27 02:32:09;0.00;0.00;0.62;0.00;0.00;0.62;;;;;22.20;6.50;;;;;;2272463;61;1081;-84
2022/06/27 02:34:37;0.00;0.00;0.62;0.00;0.00;0.62;;;;;22.10;5.90;;;;;;2272388;61;1922;-84
2022/06/27 02:37:05;0.00;0.00;0.62;0.00;0.00;0.62;;;;;22.10;5.00;;;;;;2272422;61;1112;-83
2022/06/27 02:39:36;97054.00;0.32;168.49;0.00;0.00;0.62;;;;;22.00;5.50;;;;;;2272344;61;1620;-85
2022/06/27 02:42:07;0.00;0.00;0.62;0.00;0.00;0.62;;;;;21.90;5.40;;;;;;2272421;61;1034;-84
2022/06/27 02:44:35;29675.00;0.10;52.02;0.00;0.00;0.62;;;;;22.00;6.70;;;;;;2272328;61;1019;-85
2022/06/27 02:47:03;330518.00;1.10;570.38;42192.00;0.14;73.68;;;;;22.30;5.90;;;;;;2272335;61;1086;-85
2022/06/27 02:49:32;27396.00;0.09;48.08;0.00;0.00;0.62;;;;;22.60;4.80;;;;;;2272340;61;2208;-84
2022/06/27 02:52:03;0.00;0.00;0.62;0.00;0.00;0.62;;;;;22.70;3.00;;;;;;2272412;61;1052;-85
2022/06/27 02:54:39;0.00;0.00;0.62;0.00;0.00;0.62;;;;;22.70;3.00;;;;;;2272401;61;1146;-86
2022/06/27 02:57:15;0.00;0.00;0.62;0.00;0.00;0.62;;;;;22.90;2.40;;;;;;2272345;61;1048;-85
2022/06/27 02:59:45;0.00;0.00;0.62;0.00;0.00;0.62;;;;;22.80;2.40;;;;;;2272328;61;1470;-84
2022/06/27 03:02:12;103493.00;0.34;179.60;0.00;0.00;0.62;;;;;22.90;2.40;;;;;;2272371;61;1073;-84
2022/06/27 03:04:40;0.00;0.00;0.62;0.00;0.00;0.62;;;;;23.10;1.10;;;;;;2272323;61;1110;-84
2022/06/27 03:07:07;0.00;0.00;0.62;0.00;0.00;0.62;;;;;23.10;1.00;;;;;;2272338;61;1131;-84
2022/06/27 03:09:34;0.00;0.00;0.62;0.00;0.00;0.62;;;;;23.30;1.00;;;;;;2272336;61;1402;-84
2022/06/27 03:12:01;0.00;0.00;0.62;0.00;0.00;0.62;;;;;23.10;1.10;;;;;;2272323;61;952;-85
2022/06/27 03:14:28;179750.00;0.60;311.06;70658.00;0.24;122.90;;;;;23.00;1.40;;;;;;2272358;61;1056;-84
2022/06/27 03:16:55;0.00;0.00;0.62;0.00;0.00;0.62;;;;;22.90;2.40;;;;;;2272270;61;1923;-85
2022/06/27 03:19:22;0.00;0.00;0.62;0.00;0.00;0.62;;;;;22.60;3.00;;;;;;2272274;61;1380;-85
2022/06/27 03:21:50;0.00;0.00;0.62;0.00;0.00;0.62;;;;;22.70;2.40;;;;;;2272288;61;1125;-85
2022/06/27 03:24:17;0.00;0.00;0.62;0.00;0.00;0.62;;;;;22.60;2.70;;;;;;2272187;61;980;-85
2022/06/27 03:26:44;0.00;0.00;0.62;0.00;0.00;0.62;;;;;22.70;2.90;;;;;;2272292;61;931;-85
2022/06/27 03:29:11;0.00;0.00;0.62;0.00;0.00;0.62;;;;;22.70;3.20;;;;;;2272264;61;1293;-85
2022/06/27 03:31:38;34914.00;0.12;61.09;0.00;0.00;0.62;;;;;22.80;2.50;;;;;;2272181;61;1044;-84
2022/06/27 03:34:05;112169.00;0.37;194.57;32079.00;0.11;56.18;;;;;23.10;1.60;;;;;;2272141;61;997;-84
2022/06/27 03:36:31;91668.00;0.31;159.19;0.00;0.00;0.62;;;;;23.20;1.70;;;;;;2272237;61;1996;-85
2022/06/27 03:39:00;158487.00;0.53;274.43;0.00;0.00;0.62;;;;;23.10;1.80;;;;;;2272132;61;1300;-85
2022/06/27 03:41:27;0.00;0.00;0.62;0.00;0.00;0.62;;;;;23.10;1.10;;;;;;2272153;61;1056;-85
2022/06/27 03:43:54;0.00;0.00;0.62;0.00;0.00;0.62;;;;;23.20;1.10;;;;;;2272211;61;1075;-86
2022/06/27 03:46:21;0.00;0.00;0.62;0.00;0.00;0.62;;;;;23.20;1.00;;;;;;2272147;61;1070;-85
2022/06/27 03:51:31;0.00;0.00;0.62;0.00;0.00;0.62;;;;;23.10;1.10;;;;;;2272258;61;668;-85
2022/06/27 03:54:00;80366.00;0.27;139.67;0.00;0.00;0.62;;;;;23.10;1.30;;;;;;2272220;61;1020;-85
2022/06/27 03:56:27;0.00;0.00;0.62;0.00;0.00;0.62;;;;;23.10;1.70;;;;;;2272122;61;1913;-84
2022/06/27 03:58:53;0.00;0.00;0.62;0.00;0.00;0.62;;;;;23.20;1.00;;;;;;2272147;61;1279;-85
2022/06/27 04:01:20;183935.00;0.61;318.27;42789.00;0.14;74.71;;;;;23.30;1.00;;;;;;2272184;61;1055;-86
2022/06/27 04:03:47;0.00;0.00;0.62;0.00;0.00;0.62;;;;;23.40;1.00;;;;;;2272212;61;1032;-85
2022/06/27 04:06:14;95018.00;0.32;164.97;28676.00;0.10;50.29;;;;;23.20;1.00;;;;;;2272130;61;1072;-84
2022/06/27 04:08:42;0.00;0.00;0.62;0.00;0.00;0.62;;;;;23.40;1.00;;;;;;2272140;61;1389;-86
2022/06/27 04:11:11;55003.00;0.18;95.84;0.00;0.00;0.62;;;;;22.80;1.90;;;;;;2272168;61;1097;-85
2022/06/27 04:13:38;0.00;0.00;0.62;0.00;0.00;0.62;;;;;22.60;2.30;;;;;;2272121;61;1030;-85
2022/06/27 04:16:05;0.00;0.00;0.62;0.00;0.00;0.62;;;;;22.70;2.20;;;;;;2272041;61;1998;-85
2022/06/27 04:18:32;0.00;0.00;0.62;0.00;0.00;0.62;;;;;22.90;2.50;;;;;;2272108;61;1278;-85
2022/06/27 04:21:00;0.00;0.00;0.62;0.00;0.00;0.62;;;;;22.90;3.10;;;;;;2272203;61;1164;-86
2022/06/27 04:23:27;16408.00;0.05;29.05;0.00;0.00;0.62;;;;;22.90;2.70;;;;;;2272124;61;933;-84
2022/06/27 04:25:54;0.00;0.00;0.62;0.00;0.00;0.62;;;;;22.80;2.80;;;;;;2272164;61;1119;-84
2022/06/27 04:28:22;43226.00;0.14;75.47;0.00;0.00;0.62;;;;;22.90;2.50;;;;;;2272050;61;1265;-84
2022/06/27 04:30:49;0.00;0.00;0.62;0.00;0.00;0.62;;;;;23.00;1.80;;;;;;2272043;61;1064;-85
2022/06/27 04:33:16;119024.00;0.40;206.40;0.00;0.00;0.62;;;;;22.90;3.30;;;;;;2272134;61;1108;-85
2022/06/27 04:35:46;0.00;0.00;0.62;0.00;0.00;0.62;;;;;23.00;3.10;;;;;;2272044;61;1915;-85
2022/06/27 04:38:13;0.00;0.00;0.62;0.00;0.00;0.62;;;;;23.00;3.80;;;;;;2272018;61;1457;-86
2022/06/27 04:40:40;14347.00;0.05;25.48;0.00;0.00;0.62;;;;;23.20;2.70;;;;;;2272042;61;1031;-85
2022/06/27 04:43:08;76873.00;0.26;133.64;0.00;0.00;0.62;;;;;23.30;2.60;;;;;;2272214;61;1099;-85
2022/06/27 04:45:36;0.00;0.00;0.62;0.00;0.00;0.62;;;;;23.30;3.40;;;;;;2272693;61;1128;-86
2022/06/27 04:48:07;47497.00;0.16;82.86;0.00;0.00;0.62;;;;;23.50;3.00;;;;;;2272713;61;1533;-85
2022/06/27 04:50:34;9827.00;0.03;17.65;0.00;0.00;0.62;;;;;23.90;1.00;;;;;;2272768;61;1039;-86
2022/06/27 04:53:01;174293.00;0.58;301.66;36466.00;0.12;63.77;;;;;24.00;3.10;;;;;;2272763;61;1068;-85
2022/06/27 04:55:28;113965.00;0.38;197.67;35399.00;0.12;61.93;;;;;24.10;1.00;;;;;;2272692;61;1998;-86
2022/06/27 04:57:55;0.00;0.00;0.62;0.00;0.00;0.62;;;;;23.90;1.20;;;;;;2272687;61;1371;-84
2022/06/27 05:00:22;53667.00;0.18;93.53;0.00;0.00;0.62;;;;;23.90;1.00;;;;;;2272702;61;1095;-85
2022/06/27 05:02:50;0.00;0.00;0.62;0.00;0.00;0.62;;;;;24.20;1.00;;;;;;2272684;61;1084;-84
2022/06/27 05:05:17;0.00;0.00;0.62;0.00;0.00;0.62;;;;;24.20;1.00;;;;;;2272693;61;1117;-84
2022/06/27 05:07:44;281384.00;0.94;485.92;18174.00;0.06;32.11;;;;;24.00;1.00;;;;;;2272626;61;1378;-85
2022/06/27 05:10:12;268522.00;0.90;463.80;43307.00;0.14;75.61;;;;;23.90;1.00;;;;;;2272720;61;880;-86
2022/06/27 05:12:39;0.00;0.00;0.62;0.00;0.00;0.62;;;;;24.10;2.50;;;;;;2272672;61;1067;-85
2022/06/27 05:15:06;0.00;0.00;0.62;0.00;0.00;0.62;;;;;24.30;1.20;;;;;;2272643;61;1025;-85
2022/06/27 05:17:33;130407.00;0.43;226.03;0.00;0.00;0.62;;;;;24.60;1.30;;;;;;2272616;61;2012;-85
2022/06/27 05:20:03;93291.00;0.31;161.99;18674.00;0.06;32.97;;;;;24.90;1.00;;;;;;2272620;61;1316;-85
2022/06/27 05:22:30;97634.00;0.33;169.49;0.00;0.00;0.62;;;;;25.10;1.00;;;;;;2272640;61;1330;-85
2022/06/27 05:24:57;26107.00;0.09;45.84;0.00;0.00;0.62;;;;;25.30;1.00;;;;;;2272601;61;1130;-85
2022/06/27 05:27:24;207316.00;0.69;358.52;62522.00;0.21;108.84;;;;;25.30;1.00;;;;;;2272487;61;1143;-86
2022/06/27 05:29:51;123657.00;0.41;214.39;0.00;0.00;0.62;;;;;25.30;1.00;;;;;;2272366;61;1279;-85
2022/06/27 05:32:18;0.00;0.00;0.62;0.00;0.00;0.62;;;;;25.60;1.00;;;;;;2272558;61;1132;-85
2022/06/27 05:34:45;0.00;0.00;0.62;0.00;0.00;0.62;;;;;25.30;1.00;;;;;;2272596;61;1185;-85
2022/06/27 05:37:14;0.00;0.00;0.62;0.00;0.00;0.62;;;;;25.20;1.00;;;;;;2272459;61;1994;-84
2022/06/27 05:39:43;0.00;0.00;0.62;0.00;0.00;0.62;;;;;25.20;1.00;;;;;;2272483;61;1304;-85
2022/06/27 05:42:10;0.00;0.00;0.62;0.00;0.00;0.62;;;;;25.10;1.00;;;;;;2272539;61;1096;-84
2022/06/27 05:44:37;0.00;0.00;0.62;0.00;0.00;0.62;;;;;25.50;1.00;;;;;;2272418;61;1474;-84
2022/06/27 05:47:04;0.00;0.00;0.62;0.00;0.00;0.62;;;;;25.80;1.00;;;;;;2272365;61;1027;-84
2022/06/27 05:49:33;354060.00;1.18;610.84;87621.00;0.29;152.20;;;;;25.80;1.00;;;;;;2272473;61;1288;-85
2022/06/27 05:52:00;38410.00;0.13;67.14;0.00;0.00;0.62;;;;;25.70;1.00;;;;;;2272468;61;1162;-84
2022/06/27 05:54:29;0.00;0.00;0.62;0.00;0.00;0.62;;;;;26.00;1.00;;;;;;2272571;61;1043;-84
2022/06/27 05:56:58;80713.00;0.27;140.27;0.00;0.00;0.62;;;;;26.20;1.00;;;;;;2272452;61;1998;-84
2022/06/27 05:59:25;154558.00;0.52;267.66;25938.00;0.09;45.55;;;;;26.20;1.00;;;;;;2272452;61;1419;-84
2022/06/27 06:01:52;0.00;0.00;0.62;0.00;0.00;0.62;;;;;26.50;1.00;;;;;;2272548;61;2024;-84
2022/06/27 06:04:20;95785.00;0.32;166.30;30211.00;0.10;52.95;;;;;26.50;1.00;;;;;;2272459;61;1663;-84
2022/06/27 06:06:47;311154.00;1.04;537.09;94976.00;0.32;164.90;;;;;26.60;1.00;;;;;;2272431;61;1110;-85
2022/06/27 06:09:15;31269.00;0.10;54.78;0.00;0.00;0.62;;;;;26.10;1.00;;;;;;2272521;61;1298;-85
2022/06/27 06:11:46;0.00;0.00;0.62;0.00;0.00;0.62;;;;;25.60;1.00;;;;;;2272438;61;1094;-84
2022/06/27 06:14:13;123815.00;0.41;214.66;55929.00;0.19;97.44;;;;;25.30;1.00;;;;;;2272569;61;1030;-84
2022/06/27 06:16:40;36864.00;0.12;64.46;0.00;0.00;0.62;;;;;25.00;1.00;;;;;;2272492;61;1915;-85
2022/06/27 06:19:07;0.00;0.00;0.62;0.00;0.00;0.62;;;;;25.10;1.40;;;;;;2272427;61;1393;-85
2022/06/27 06:21:34;0.00;0.00;0.62;0.00;0.00;0.62;;;;;25.50;1.00;;;;;;2272578;61;1048;-85
2022/06/27 06:24:01;0.00;0.00;0.62;0.00;0.00;0.62;;;;;25.90;1.00;;;;;;2272667;61;1126;-84
2022/06/27 06:26:28;12934.00;0.04;23.03;0.00;0.00;0.62;;;;;26.90;1.00;;;;;;2272624;61;1649;-84
2022/06/27 06:29:01;0.00;0.00;0.62;0.00;0.00;0.62;;;;;27.60;1.00;;;;;;2272566;61;1277;-85
2022/06/27 06:31:28;0.00;0.00;0.62;0.00;0.00;0.62;;;;;28.20;1.00;;;;;;2272555;61;1142;-84
2022/06/27 06:33:56;16439.00;0.05;29.10;0.00;0.00;0.62;;;;;28.60;1.00;;;;;;2272634;61;1067;-84
2022/06/27 06:36:23;106956.00;0.36;185.58;22745.00;0.08;40.02;;;;;28.60;1.00;;;;;;2272778;61;1994;-84
2022/06/27 06:38:51;0.00;0.00;0.62;0.00;0.00;0.62;;;;;28.60;1.00;;;;;;2272718;61;1283;-83
2022/06/27 06:41:18;190718.00;0.64;329.94;51458.00;0.17;89.71;;;;;28.00;1.00;;;;;;2272624;61;1025;-84
2022/06/27 06:43:46;0.00;0.00;0.62;0.00;0.00;0.62;;;;;27.40;1.00;;;;;;2272534;61;1107;-84
2022/06/27 06:46:16;0.00;0.00;0.62;0.00;0.00;0.62;;;;;27.10;1.00;;;;;;2272381;61;1155;-84
2022/06/27 06:48:42;101486.00;0.34;176.14;33400.00;0.11;58.47;;;;;26.80;1.00;;;;;;2272397;61;1406;-85
2022/06/27 06:51:09;38231.00;0.13;66.83;0.00;0.00;0.62;;;;;26.80;1.00;;;;;;2272389;61;1148;-85
2022/06/27 06:53:37;0.00;0.00;0.62;0.00;0.00;0.62;;;;;26.70;1.00;;;;;;2272507;61;1166;-85
2022/06/27 06:56:05;0.00;0.00;0.62;0.00;0.00;0.62;;;;;26.70;1.00;;;;;;2272333;61;1918;-83
2022/06/27 06:58:32;7614.00;0.03;13.82;0.00;0.00;0.62;;;;;26.60;1.00;;;;;;2272270;61;1295;-84
2022/06/27 07:00:59;29921.00;0.10;52.45;0.00;0.00;0.62;;;;;26.80;1.00;;;;;;2272404;61;1140;-84
2022/06/27 07:03:27;0.00;0.00;0.62;0.00;0.00;0.62;;;;;27.30;1.00;;;;;;2272416;61;1532;-84
2022/06/27 07:05:54;0.00;0.00;0.62;0.00;0.00;0.62;;;;;28.60;1.00;;;;;;2272160;61;1046;-84
2022/06/27 07:08:21;0.00;0.00;0.62;0.00;0.00;0.62;;;;;29.90;1.00;;;;;;2272339;61;1248;-83
2022/06/27 07:10:49;0.00;0.00;0.62;0.00;0.00;0.62;;;;;30.90;1.00;;;;;;2272368;61;1078;-82
2022/06/27 07:13:16;0.00;0.00;0.62;0.00;0.00;0.62;;;;;32.20;1.00;;;;;;2272366;61;1046;-83
2022/06/27 07:15:45;0.00;0.00;0.62;0.00;0.00;0.62;;;;;33.00;1.00;;;;;;2272436;61;1002;-84
2022/06/27 07:18:13;8877.00;0.03;16.00;0.00;0.00;0.62;;;;;33.30;1.00;;;;;;2272338;61;2002;-85
2022/06/27 07:20:41;0.00;0.00;0.62;0.00;0.00;0.62;;;;;33.50;1.00;;;;;;2272297;61;1162;-85
2022/06/27 07:23:09;0.00;0.00;0.62;0.00;0.00;0.62;;;;;33.40;1.00;;;;;;2272140;61;1015;-85
2022/06/27 07:25:36;0.00;0.00;0.62;0.00;0.00;0.62;;;;;33.50;1.00;;;;;;2272314;61;983;-85
2022/06/27 07:28:04;0.00;0.00;0.62;0.00;0.00;0.62;;;;;33.90;1.00;;;;;;2272226;61;1394;-83
2022/06/27 07:30:31;0.00;0.00;0.62;0.00;0.00;0.62;;;;;33.60;1.00;;;;;;2272235;61;1082;-84
2022/06/27 07:32:58;0.00;0.00;0.62;0.00;0.00;0.62;;;;;34.10;1.00;;;;;;2272258;61;1685;-84
2022/06/27 07:35:26;0.00;0.00;0.62;0.00;0.00;0.62;;;;;34.90;1.00;;;;;;2271987;61;1071;-85
2022/06/27 07:37:55;0.00;0.00;0.62;0.00;0.00;0.62;;;;;35.60;1.00;;;;;;2271674;61;2008;-86
2022/06/27 07:40:24;38746.00;0.13;67.72;0.00;0.00;0.62;;;;;35.10;1.00;;;;;;2271810;61;1125;-85
2022/06/27 07:42:52;0.00;0.00;0.62;0.00;0.00;0.62;;;;;34.10;1.00;;;;;;2272272;61;1057;-85
2022/06/27 07:45:20;298581.00;1.00;515.48;82045.00;0.27;142.57;;;;;33.40;1.00;;;;;;2272221;61;1030;-84
2022/06/27 07:47:47;0.00;0.00;0.62;0.00;0.00;0.62;;;;;32.50;1.00;;;;;;2272147;61;1551;-84
2022/06/27 07:50:36;28481.00;0.09;49.95;0.00;0.00;0.62;;;;;31.40;1.00;;;;;;2272221;61;1597;-84
2022/06/27 07:53:15;0.00;0.00;0.62;0.00;0.00;0.62;;;;;31.30;1.00;;;;;;2272253;61;1236;-84
2022/06/27 07:55:46;0.00;0.00;0.62;0.00;0.00;0.62;;;;;31.30;1.00;;;;;;2272265;61;1048;-85
2022/06/27 07:58:16;43628.00;0.15;76.16;0.00;0.00;0.62;;;;;31.10;1.00;;;;;;2272178;61;1927;-85
2022/06/27 08:00:45;0.00;0.00;0.62;0.00;0.00;0.62;;;;;30.80;1.00;;;;;;2272269;61;1117;-86
2022/06/27 08:05:57;177141.00;0.59;306.57;54705.00;0.18;95.32;;;;;31.20;1.00;;;;;;2272270;61;620;-85
2022/06/27 08:08:26;223280.00;0.74;385.99;65639.00;0.22;114.22;;;;;32.40;1.00;;;;;;2272171;61;1293;-86
2022/06/27 08:10:54;174460.00;0.58;301.95;68553.00;0.23;119.26;;;;;33.60;1.00;;;;;;2272200;61;1058;-83
2022/06/27 08:13:21;123776.00;0.41;214.60;0.00;0.00;0.62;;;;;33.10;1.00;;;;;;2272120;61;1083;-84
2022/06/27 08:15:50;0.00;0.00;0.62;0.00;0.00;0.62;;;;;32.90;1.00;;;;;;2272127;61;1105;-84
2022/06/27 08:18:17;0.00;0.00;0.62;0.00;0.00;0.62;;;;;33.30;1.00;;;;;;2272378;61;1922;-84
2022/06/27 08:20:45;96433.00;0.32;167.41;31055.00;0.10;54.41;;;;;34.10;1.00;;;;;;2272848;61;1032;-84
2022/06/27 08:23:13;0.00;0.00;0.62;0.00;0.00;0.62;;;;;33.80;1.00;;;;;;2272867;61;1042;-83
2022/06/27 08:25:41;0.00;0.00;0.62;0.00;0.00;0.62;;;;;34.00;1.00;;;;;;2272848;61;1063;-84
2022/06/27 08:28:09;0.00;0.00;0.62;0.00;0.00;0.62;;;;;34.20;1.00;;;;;;2272734;61;1434;-85
2022/06/27 08:30:36;157196.00;0.52;272.21;11155.00;0.04;19.95;;;;;33.70;1.00;;;;;;2272778;61;1058;-84
2022/06/27 08:33:03;140078.00;0.47;242.71;7239.00;0.02;13.17;;;;;33.30;1.00;;;;;;2272816;61;1079;-84
2022/06/27 08:35:32;0.00;0.00;0.62;0.00;0.00;0.62;;;;;32.70;1.00;;;;;;2272718;61;1208;-83
2022/06/27 08:38:00;0.00;0.00;0.62;0.00;0.00;0.62;;;;;32.00;1.00;;;;;;2272669;61;1993;-84
2022/06/27 08:40:28;0.00;0.00;0.62;0.00;0.00;0.62;;;;;31.50;1.00;;;;;;2272698;61;1039;-83
2022/06/27 08:42:57;0.00;0.00;0.62;0.00;0.00;0.62;;;;;31.50;1.00;;;;;;2272690;61;1054;-84
2022/06/27 08:45:28;0.00;0.00;0.62;0.00;0.00;0.62;;;;;31.30;1.00;;;;;;2272727;61;1153;-84
2022/06/27 08:47:59;0.00;0.00;0.62;0.00;0.00;0.62;;;;;31.00;1.00;;;;;;2272680;61;1426;-86
2022/06/27 08:50:26;37184.00;0.12;65.02;0.00;0.00;0.62;;;;;31.00;1.00;;;;;;2272689;61;1007;-84
2022/06/27 08:52:58;0.00;0.00;0.62;0.00;0.00;0.62;;;;;30.90;1.00;;;;;;2272620;61;1002;-84
2022/06/27 08:55:25;0.00;0.00;0.62;0.00;0.00;0.62;;;;;31.40;1.00;;;;;;2272663;61;1128;-84
2022/06/27 08:57:52;0.00;0.00;0.62;0.00;0.00;0.62;;;;;31.50;1.00;;;;;;2272572;61;2010;-84
2022/06/27 09:00:22;0.00;0.00;0.62;0.00;0.00;0.62;;;;;31.40;1.00;;;;;;2272681;61;941;-86
2022/06/27 09:02:49;205519.00;0.69;355.42;65320.00;0.22;113.67;;;;;32.00;1.00;;;;;;2272533;61;1005;-82
2022/06/27 09:05:24;0.00;0.00;0.62;0.00;0.00;0.62;;;;;32.10;1.00;;;;;;2272506;61;1047;-84
2022/06/27 09:07:52;10802.00;0.04;19.34;0.00;0.00;0.62;;;;;32.30;1.00;;;;;;2272644;61;1373;-82
2022/06/27 09:10:29;0.00;0.00;0.62;0.00;0.00;0.62;;;;;32.20;1.00;;;;;;2272563;61;1117;-85
2022/06/27 09:12:59;0.00;0.00;0.62;0.00;0.00;0.62;;;;;31.60;1.00;;;;;;2272611;61;1605;-84
2022/06/27 09:15:30;0.00;0.00;0.62;0.00;0.00;0.62;;;;;31.00;1.00;;;;;;2272634;61;1048;-84
2022/06/27 09:18:09;0.00;0.00;0.62;0.00;0.00;0.62;;;;;30.60;1.00;;;;;;2272541;61;1911;-83
2022/06/27 09:20:49;212966.00;0.71;368.24;63668.00;0.21;110.82;;;;;30.40;1.00;;;;;;2272543;61;1047;-84
2022/06/27 09:23:38;207189.00;0.69;358.30;69238.00;0.23;120.44;;;;;30.20;1.00;;;;;;2272598;61;1164;-83
2022/06/27 09:26:09;203616.00;0.68;352.15;0.00;0.00;0.62;;;;;29.80;1.00;;;;;;2272639;61;1151;-84
2022/06/27 09:28:44;156489.00;0.52;270.99;0.00;0.00;0.62;;;;;29.30;1.00;;;;;;2272437;61;1334;-85
2022/06/27 09:31:28;343205.00;1.14;592.18;30642.00;0.10;53.69;;;;;28.90;1.00;;;;;;2272658;61;1180;-85
2022/06/27 09:34:02;174218.00;0.58;301.53;0.00;0.00;0.62;;;;;28.50;1.00;;;;;;2272562;61;1084;-84
2022/06/27 09:36:31;286625.00;0.96;494.93;12522.00;0.04;22.32;;;;;28.30;1.00;;;;;;2272724;61;1047;-84
2022/06/27 09:39:01;255069.00;0.85;440.67;0.00;0.00;0.62;;;;;27.90;1.00;;;;;;2272567;61;2007;-84
2022/06/27 09:41:30;500010.00;1.67;861.84;0.00;0.00;0.62;;;;;27.70;1.00;;;;;;2272519;61;985;-85
2022/06/27 09:44:06;260055.00;0.87;449.24;0.00;0.00;0.62;;;;;27.90;1.00;;;;;;2272573;61;1000;-83
2022/06/27 09:46:38;79148.00;0.26;137.57;0.00;0.00;0.62;;;;;27.90;1.00;;;;;;2272447;61;1202;-84
2022/06/27 09:49:12;57810.00;0.19;100.69;0.00;0.00;0.62;;;;;27.90;1.00;;;;;;2272566;61;1470;-84
2022/06/27 09:51:40;37179.00;0.12;65.01;0.00;0.00;0.62;;;;;27.40;1.00;;;;;;2272633;61;933;-85
2022/06/27 09:54:11;322409.00;1.07;556.44;0.00;0.00;0.62;;;;;26.60;1.00;;;;;;2272622;61;912;-84
2022/06/27 09:56:39;100655.00;0.34;174.70;0.00;0.00;0.62;;;;;26.30;1.00;;;;;;2272462;61;1501;-84
2022/06/27 09:59:08;162377.00;0.54;281.13;13898.00;0.05;24.70;;;;;26.90;1.00;;;;;;2272543;61;1936;-84
2022/06/27 10:01:37;117334.00;0.39;203.48;0.00;0.00;0.62;;;;;27.00;1.00;;;;;;2272544;61;1106;-85
2022/06/27 10:04:07;142092.00;0.47;246.18;0.00;0.00;0.62;;;;;26.60;1.00;;;;;;2272596;61;1038;-84
2022/06/27 10:06:36;294307.00;0.98;508.13;0.00;0.00;0.62;;;;;26.90;1.00;;;;;;2272500;61;1602;-84
2022/06/27 10:09:05;161066.00;0.54;278.88;0.00;0.00;0.62;;;;;26.70;1.00;;;;;;2272433;61;1257;-84
2022/06/27 10:11:33;224.00;0.00;1.01;0.00;0.00;0.62;;;;;26.80;1.00;;;;;;2272413;61;1047;-84
2022/06/27 10:14:16;196793.00;0.66;340.40;0.00;0.00;0.62;;;;;26.80;1.00;;;;;;2272557;61;1096;-85
2022/06/27 10:16:58;484190.00;1.61;834.61;39048.00;0.13;68.24;;;;;27.30;1.00;;;;;;2272575;61;906;-84
2022/06/27 10:19:26;41061.00;0.14;71.72;0.00;0.00;0.62;;;;;28.00;1.00;;;;;;2272470;61;1269;-84
2022/06/27 10:21:55;76276.00;0.25;132.60;0.00;0.00;0.62;;;;;28.30;1.00;;;;;;2272475;61;1125;-85
2022/06/27 10:24:35;147932.00;0.49;256.24;36295.00;0.12;63.48;;;;;28.50;1.00;;;;;;2272421;61;1518;-84
2022/06/27 10:27:08;154810.00;0.52;268.10;0.00;0.00;0.62;;;;;28.30;1.00;;;;;;2272399;61;1743;-85
2022/06/27 10:29:42;108156.00;0.36;187.65;0.00;0.00;0.62;;;;;28.60;1.00;;;;;;2272475;61;1378;-86
2022/06/27 10:32:47;402521.00;1.34;694.14;38873.00;0.13;67.94;;;;;28.80;1.00;;;;;;2272472;61;1601;-85
2022/06/27 10:35:16;68103.00;0.23;118.48;0.00;0.00;0.62;;;;;28.90;1.00;;;;;;2272395;61;1592;-85